createdAt,value
2022-10-16T00:02:32.405Z,1.10
2022-10-16T00:05:17.926Z,1.20
2022-10-16T00:08:03.811Z,1.00
2022-10-16T00:10:49.452Z,1.30
2022-10-16T00:13:36.927Z,1.08
2022-10-16T00:16:22.173Z,1.40
2022-10-16T00:19:08.141Z,1.10
2022-10-16T00:21:53.593Z,1.10
2022-10-16T00:24:39.065Z,1.63
2022-10-16T00:27:24.117Z,1.00
2022-10-16T00:30:10.061Z,1.20
2022-10-16T00:32:56.068Z,1.40
2022-10-16T00:35:41.415Z,1.30
2022-10-16T00:38:27.809Z,1.30
2022-10-16T00:41:16.625Z,1.30
2022-10-16T00:44:23.800Z,1.30
2022-10-16T00:47:19.679Z,1.20
2022-10-16T00:50:27.646Z,1.50
2022-10-16T00:53:13.228Z,1.50
2022-10-16T00:55:58.551Z,1.60
2022-10-16T00:58:44.076Z,1.60
2022-10-16T01:01:29.894Z,1.63
2022-10-16T01:04:15.741Z,1.45
2022-10-16T01:07:10.346Z,1.90
2022-10-16T01:10:13.126Z,1.27
2022-10-16T01:13:08.676Z,1.40
2022-10-16T01:16:07.707Z,1.42
2022-10-16T01:19:13.064Z,1.35
2022-10-16T01:22:00.369Z,1.17
2022-10-16T01:24:49.222Z,1.60
2022-10-16T01:27:37.275Z,1.67
2022-10-16T01:30:28.745Z,1.23
2022-10-16T01:33:20.224Z,1.45
2022-10-16T01:36:13.126Z,1.40
2022-10-16T01:39:02.407Z,1.38
2022-10-16T01:41:56.357Z,1.40
2022-10-16T01:44:43.649Z,1.30
2022-10-16T01:47:32.652Z,1.50
2022-10-16T01:50:20.864Z,1.42
2022-10-16T01:53:08.295Z,1.85
2022-10-16T01:55:56.530Z,1.40
2022-10-16T01:58:47.323Z,1.27
2022-10-16T02:01:36.578Z,1.40
2022-10-16T02:04:35.587Z,1.40
2022-10-16T02:07:21.027Z,1.58
2022-10-16T02:10:07.066Z,1.30
2022-10-16T02:12:59.778Z,1.23
2022-10-16T02:15:45.553Z,1.20
2022-10-16T02:18:32.032Z,1.20
2022-10-16T02:21:26.398Z,1.33
2022-10-16T02:24:28.870Z,1.27
2022-10-16T02:27:29.188Z,1.50
2022-10-16T02:30:20.468Z,1.33
2022-10-16T02:33:10.380Z,1.35
2022-10-16T02:35:56.788Z,1.15
2022-10-16T02:38:42.760Z,1.05
2022-10-16T02:41:28.585Z,1.38
2022-10-16T02:44:14.400Z,1.30
2022-10-16T02:47:00.027Z,1.20
2022-10-16T02:49:45.477Z,1.15
2022-10-16T02:52:30.788Z,1.30
2022-10-16T02:55:16.369Z,1.27
2022-10-16T02:58:01.875Z,1.17
2022-10-16T03:00:47.484Z,1.30
2022-10-16T03:03:33.016Z,1.08
2022-10-16T03:06:19.470Z,1.10
2022-10-16T03:09:04.863Z,1.30
2022-10-16T03:11:50.284Z,1.20
2022-10-16T03:14:36.001Z,1.27
2022-10-16T03:17:21.280Z,1.27
2022-10-16T03:20:07.425Z,1.25
2022-10-16T03:22:53.085Z,1.23
2022-10-16T03:25:38.420Z,1.27
2022-10-16T03:28:24.176Z,1.13
2022-10-16T03:31:09.464Z,1.30
2022-10-16T03:33:55.039Z,1.10
2022-10-16T03:36:40.659Z,1.30
2022-10-16T03:39:26.118Z,1.13
2022-10-16T03:42:11.441Z,1.33
2022-10-16T03:44:57.177Z,1.33
2022-10-16T03:47:43.333Z,1.40
2022-10-16T03:50:28.696Z,1.60
2022-10-16T03:53:14.426Z,1.35
2022-10-16T03:55:59.619Z,1.40
2022-10-16T03:58:45.145Z,1.33
2022-10-16T04:01:30.861Z,1.50
2022-10-16T04:04:16.351Z,1.25
2022-10-16T04:07:02.284Z,1.17
2022-10-16T04:09:47.600Z,1.40
2022-10-16T04:12:33.263Z,1.55
2022-10-16T04:15:18.909Z,1.40
2022-10-16T04:18:05.266Z,1.20
2022-10-16T04:20:50.677Z,1.38
2022-10-16T04:23:36.104Z,1.55
2022-10-16T04:26:21.830Z,1.50
2022-10-16T04:29:08.101Z,1.42
2022-10-16T04:31:53.757Z,1.50
2022-10-16T04:34:40.709Z,1.27
2022-10-16T04:37:27.947Z,1.20
2022-10-16T04:40:13.702Z,1.40
2022-10-16T04:43:00.114Z,1.30
2022-10-16T04:45:45.558Z,1.40
2022-10-16T04:48:30.837Z,1.50
2022-10-16T04:51:16.325Z,1.40
2022-10-16T04:54:01.913Z,1.33
2022-10-16T04:56:47.987Z,1.40
2022-10-16T04:59:33.439Z,1.95
2022-10-16T05:02:18.973Z,1.52
2022-10-16T05:05:04.701Z,1.20
2022-10-16T05:07:53.178Z,1.20
2022-10-16T05:10:38.379Z,1.50
2022-10-16T05:13:24.384Z,1.38
2022-10-16T05:16:09.771Z,1.48
2022-10-16T05:19:00.051Z,1.83
2022-10-16T05:21:49.644Z,1.50
2022-10-16T05:24:35.049Z,1.40
2022-10-16T05:27:20.392Z,1.23
2022-10-16T05:30:08.620Z,1.20
2022-10-16T05:32:56.753Z,1.38
2022-10-16T05:35:42.398Z,1.45
2022-10-16T05:38:27.691Z,1.30
2022-10-16T05:41:13.577Z,1.30
2022-10-16T05:43:59.191Z,1.50
2022-10-16T05:46:44.700Z,1.40
2022-10-16T05:49:30.270Z,1.20
2022-10-16T05:52:15.748Z,1.40
2022-10-16T05:55:01.419Z,1.20
2022-10-16T05:57:46.780Z,1.33
2022-10-16T06:00:32.337Z,1.58
2022-10-16T06:03:17.816Z,1.30
2022-10-16T06:06:12.332Z,1.48
2022-10-16T06:08:58.691Z,1.20
2022-10-16T06:11:44.260Z,1.40
2022-10-16T06:14:29.886Z,1.40
2022-10-16T06:17:15.983Z,1.30
2022-10-16T06:20:01.747Z,1.15
2022-10-16T06:22:47.319Z,1.30
2022-10-16T06:25:33.086Z,1.50
2022-10-16T06:28:18.788Z,1.10
2022-10-16T06:31:08.295Z,1.30
2022-10-16T06:33:55.164Z,1.38
2022-10-16T06:36:41.214Z,1.40
2022-10-16T06:39:26.815Z,1.30
2022-10-16T06:42:12.442Z,1.42
2022-10-16T06:44:58.032Z,1.30
2022-10-16T06:47:43.578Z,1.40
2022-10-16T06:50:28.808Z,1.77
2022-10-16T06:53:14.310Z,1.85
2022-10-16T06:56:14.741Z,1.60
2022-10-16T06:59:00.914Z,1.73
2022-10-16T07:01:46.192Z,1.35
2022-10-16T07:04:31.873Z,1.67
2022-10-16T07:07:17.634Z,1.38
2022-10-16T07:10:03.552Z,1.30
2022-10-16T07:12:49.084Z,1.30
2022-10-16T07:15:35.089Z,2.55
2022-10-16T07:18:20.731Z,1.20
2022-10-16T07:21:10.619Z,1.35
2022-10-16T07:23:59.333Z,1.13
2022-10-16T07:26:47.070Z,1.60
2022-10-16T07:29:32.817Z,1.30
2022-10-16T07:32:18.240Z,1.27
2022-10-16T07:35:04.085Z,1.38
2022-10-16T07:37:49.303Z,1.35
2022-10-16T07:40:35.022Z,1.30
2022-10-16T07:43:20.816Z,1.33
2022-10-16T07:46:06.745Z,1.30
2022-10-16T07:48:52.409Z,1.20
2022-10-16T07:51:39.423Z,1.63
2022-10-16T07:54:25.079Z,1.13
2022-10-16T07:57:10.534Z,1.20
2022-10-16T07:59:55.945Z,1.20
2022-10-16T08:02:42.086Z,1.38
2022-10-16T08:05:29.177Z,1.95
2022-10-16T08:08:15.738Z,1.55
2022-10-16T08:11:01.405Z,1.20
2022-10-16T08:13:46.751Z,1.00
2022-10-16T08:16:32.510Z,1.48
2022-10-16T08:19:18.185Z,1.50
2022-10-16T08:22:03.411Z,1.23
2022-10-16T08:24:49.376Z,1.20
2022-10-16T08:27:35.012Z,1.10
2022-10-16T08:30:22.279Z,1.20
2022-10-16T08:33:08.234Z,1.38
2022-10-16T08:35:54.715Z,1.00
2022-10-16T08:38:40.440Z,1.10
2022-10-16T08:41:53.480Z,1.10
2022-10-16T08:45:06.760Z,1.20
2022-10-16T08:48:09.791Z,1.00
2022-10-16T08:50:55.713Z,1.00
2022-10-16T08:53:50.618Z,1.15
2022-10-16T08:56:36.099Z,1.00
2022-10-16T08:59:21.785Z,1.10
2022-10-16T09:02:27.769Z,1.00
2022-10-16T09:05:22.832Z,1.20
2022-10-16T09:08:28.369Z,1.20
2022-10-16T09:11:34.944Z,1.00
2022-10-16T09:14:56.682Z,1.08
2022-10-16T09:17:54.559Z,1.08
2022-10-16T09:21:10.845Z,1.00
2022-10-16T09:24:14.441Z,1.27
2022-10-16T09:27:00.124Z,1.10
2022-10-16T09:29:45.673Z,1.00
2022-10-16T09:32:33.310Z,1.08
2022-10-16T09:35:25.751Z,1.30
2022-10-16T09:38:23.320Z,1.00
2022-10-16T09:41:21.019Z,1.00
2022-10-16T09:44:18.849Z,1.00
2022-10-16T09:47:16.071Z,1.02
2022-10-16T09:50:06.957Z,1.00
2022-10-16T09:52:52.219Z,1.20
2022-10-16T09:55:48.260Z,1.00
2022-10-16T09:58:34.384Z,1.20
2022-10-16T10:01:20.839Z,1.33
2022-10-16T10:04:07.061Z,1.27
2022-10-16T10:06:57.593Z,1.00
2022-10-16T10:09:46.066Z,1.10
2022-10-16T10:12:33.893Z,1.10
2022-10-16T10:15:22.709Z,1.85
2022-10-16T10:18:23.823Z,1.30
2022-10-16T10:21:16.932Z,1.00
2022-10-16T10:24:02.456Z,0.93
2022-10-16T10:26:58.159Z,1.02
2022-10-16T10:30:02.206Z,1.15
2022-10-16T10:33:12.414Z,1.02
2022-10-16T10:36:09.612Z,1.15
2022-10-16T10:39:26.007Z,1.30
2022-10-16T10:42:24.101Z,1.10
2022-10-16T10:45:17.440Z,1.10
2022-10-16T10:48:45.049Z,1.20
2022-10-16T10:51:41.583Z,1.00
2022-10-16T10:54:26.920Z,1.10
2022-10-16T10:57:49.617Z,0.90
2022-10-16T11:01:14.456Z,1.00
2022-10-16T11:04:09.439Z,1.10
2022-10-16T11:07:05.650Z,1.00
2022-10-16T11:10:17.621Z,1.15
2022-10-16T11:13:31.363Z,1.02
2022-10-16T11:16:24.112Z,1.10
2022-10-16T11:19:26.335Z,1.10
2022-10-16T11:22:41.980Z,0.98
2022-10-16T11:25:30.354Z,0.95
2022-10-16T11:28:28.035Z,0.80
2022-10-16T11:31:35.104Z,1.05
2022-10-16T11:34:45.488Z,0.80
2022-10-16T11:37:39.235Z,0.80
2022-10-16T11:40:36.185Z,0.70
2022-10-16T11:43:37.054Z,0.90
2022-10-16T11:46:26.102Z,0.90
2022-10-16T11:49:19.786Z,0.82
2022-10-16T11:52:26.809Z,1.00
2022-10-16T11:55:21.021Z,0.80
2022-10-16T11:58:42.358Z,1.00
2022-10-16T12:01:48.923Z,0.88
2022-10-16T12:04:46.694Z,0.93
2022-10-16T12:07:45.823Z,0.80
2022-10-16T12:13:39.615Z,0.70
2022-10-16T12:16:25.461Z,0.80
2022-10-16T12:19:16.395Z,0.88
2022-10-16T12:22:04.646Z,0.82
2022-10-16T12:24:53.047Z,0.80
2022-10-16T12:27:38.279Z,1.00
2022-10-16T12:30:26.062Z,0.80
2022-10-16T12:33:26.673Z,1.42
2022-10-16T12:36:17.070Z,0.85
2022-10-16T12:39:03.522Z,0.80
2022-10-16T12:41:48.872Z,1.00
2022-10-16T12:44:36.454Z,1.33
2022-10-16T12:47:38.115Z,1.05
2022-10-16T12:50:36.787Z,1.00
2022-10-16T12:53:27.472Z,1.00
2022-10-16T12:56:46.408Z,1.10
2022-10-16T12:59:49.913Z,0.90
2022-10-16T13:03:00.878Z,1.10
2022-10-16T13:05:46.167Z,1.60
2022-10-16T13:08:47.343Z,0.80
2022-10-16T13:11:57.785Z,1.42
2022-10-16T13:15:01.349Z,1.10
2022-10-16T13:17:49.800Z,1.20
2022-10-16T13:20:49.414Z,1.02
2022-10-16T13:23:51.426Z,1.08
2022-10-16T13:26:53.515Z,1.15
2022-10-16T13:29:42.211Z,1.15
2022-10-16T13:32:28.413Z,1.00
2022-10-16T13:35:24.606Z,1.20
2022-10-16T13:38:16.972Z,1.27
2022-10-16T13:41:03.857Z,1.02
2022-10-16T13:43:53.832Z,1.33
2022-10-16T13:46:39.034Z,1.00
2022-10-16T13:49:24.727Z,1.00
2022-10-16T13:52:22.429Z,1.23
2022-10-16T13:55:16.414Z,1.20
2022-10-16T13:58:15.652Z,1.10
2022-10-16T14:01:06.585Z,1.08
2022-10-16T14:03:52.458Z,1.05
2022-10-16T14:06:42.898Z,1.10
2022-10-16T14:09:30.869Z,1.30
2022-10-16T14:12:16.891Z,1.02
2022-10-16T14:15:02.441Z,1.10
2022-10-16T14:17:51.314Z,1.25
2022-10-16T14:20:36.883Z,1.27
2022-10-16T14:23:32.662Z,1.50
2022-10-16T14:26:20.749Z,1.40
2022-10-16T14:29:18.736Z,1.10
2022-10-16T14:32:06.571Z,1.27
2022-10-16T14:34:55.573Z,1.00
2022-10-16T14:37:41.486Z,1.20
2022-10-16T14:40:38.011Z,1.15
2022-10-16T14:43:32.367Z,1.05
2022-10-16T14:49:13.000Z,1.00
2022-10-16T14:51:59.042Z,1.00
2022-10-16T14:54:44.855Z,1.20
2022-10-16T14:57:34.558Z,1.20
2022-10-16T15:00:25.343Z,1.17
2022-10-16T15:03:11.058Z,1.30
2022-10-16T15:05:56.419Z,1.05
2022-10-16T15:08:42.783Z,1.08
2022-10-16T15:11:28.495Z,1.20
2022-10-16T15:17:00.152Z,1.02
2022-10-16T15:19:45.630Z,0.90
2022-10-16T15:22:31.239Z,1.20
2022-10-16T15:25:28.504Z,1.10
2022-10-16T15:28:15.035Z,1.40
2022-10-16T15:31:00.320Z,1.25
2022-10-16T15:33:52.426Z,1.10
2022-10-16T15:36:39.396Z,1.55
2022-10-16T15:39:25.330Z,1.50
2022-10-16T15:42:10.785Z,1.20
2022-10-16T15:44:56.385Z,1.10
2022-10-16T15:47:45.098Z,1.10
2022-10-16T15:50:33.224Z,1.20
2022-10-16T15:53:18.535Z,1.40
2022-10-16T15:56:09.136Z,1.80
2022-10-16T15:58:55.383Z,2.30
2022-10-16T16:01:40.646Z,2.38
2022-10-16T16:04:42.691Z,2.47
2022-10-16T16:07:28.704Z,2.28
2022-10-16T16:10:14.511Z,2.75
2022-10-16T16:13:00.196Z,2.60
2022-10-16T16:15:45.329Z,3.00
2022-10-16T16:18:30.996Z,3.20
2022-10-16T16:21:16.516Z,2.70
2022-10-16T16:24:02.121Z,2.90
2022-10-16T16:26:47.655Z,2.90
2022-10-16T16:29:33.093Z,3.75
2022-10-16T16:32:18.757Z,4.50
2022-10-16T16:35:05.780Z,4.70
2022-10-16T16:37:51.048Z,4.13
2022-10-16T16:40:36.496Z,3.80
2022-10-16T16:43:28.712Z,3.90
2022-10-16T16:46:15.403Z,3.63
2022-10-16T16:49:01.876Z,3.30
2022-10-16T16:51:47.376Z,3.10
2022-10-16T16:57:20.217Z,2.20
2022-10-16T17:00:07.093Z,2.00
2022-10-16T17:02:52.732Z,2.05
2022-10-16T17:05:38.317Z,1.60
2022-10-16T17:08:23.866Z,1.80
2022-10-16T17:11:14.952Z,1.80
2022-10-16T17:14:01.511Z,1.80
2022-10-16T17:16:48.712Z,1.42
2022-10-16T17:19:33.982Z,1.50
2022-10-16T17:22:20.383Z,1.50
2022-10-16T17:25:07.858Z,1.73
2022-10-16T17:27:53.405Z,1.70
2022-10-16T17:30:43.046Z,1.65
2022-10-16T17:34:37.359Z,1.42
2022-10-16T17:37:23.077Z,1.40
2022-10-16T17:40:10.655Z,1.35
2022-10-16T17:42:56.124Z,1.20
2022-10-16T17:45:41.994Z,1.40
2022-10-16T17:48:27.353Z,1.70
2022-10-16T17:51:15.571Z,1.48
2022-10-16T17:54:02.342Z,1.80
2022-10-16T17:56:48.863Z,1.70
2022-10-16T17:59:34.631Z,1.58
2022-10-16T18:02:19.898Z,2.83
2022-10-16T18:05:06.284Z,1.52
2022-10-16T18:07:53.005Z,1.52
2022-10-16T18:10:46.326Z,1.60
2022-10-16T18:13:32.312Z,1.50
2022-10-16T18:16:17.514Z,1.45
2022-10-16T18:19:04.031Z,1.50
2022-10-16T18:21:50.228Z,1.33
2022-10-16T18:24:36.562Z,1.50
2022-10-16T18:27:22.014Z,1.35
2022-10-16T18:30:07.676Z,1.60
2022-10-16T18:32:53.700Z,1.20
2022-10-16T18:35:40.678Z,1.52
2022-10-16T18:38:26.057Z,1.50
2022-10-16T18:41:12.066Z,1.50
2022-10-16T18:43:57.508Z,1.40
2022-10-16T18:46:42.843Z,1.48
2022-10-16T18:49:29.712Z,1.25
2022-10-16T18:52:15.316Z,1.38
2022-10-16T18:55:01.423Z,1.50
2022-10-16T18:57:47.079Z,1.30
2022-10-16T19:00:33.778Z,1.50
2022-10-16T19:03:19.271Z,1.40
2022-10-16T19:06:08.931Z,1.40
2022-10-16T19:08:55.879Z,1.52
2022-10-16T19:11:42.218Z,1.50
2022-10-16T19:14:30.275Z,1.50
2022-10-16T19:17:15.562Z,1.55
2022-10-16T19:20:01.456Z,1.70
2022-10-16T19:22:56.513Z,1.75
2022-10-16T19:25:42.132Z,1.40
2022-10-16T19:28:27.787Z,1.50
2022-10-16T19:31:19.265Z,1.40
2022-10-16T19:34:06.932Z,1.60
2022-10-16T19:36:53.204Z,1.60
2022-10-16T19:39:38.835Z,1.60
2022-10-16T19:42:24.523Z,1.30
2022-10-16T19:45:10.724Z,1.55
2022-10-16T19:47:56.001Z,1.50
2022-10-16T19:50:46.031Z,1.70
2022-10-16T19:53:32.322Z,1.70
2022-10-16T19:56:21.685Z,1.83
2022-10-16T19:59:09.085Z,1.60
2022-10-16T20:01:54.676Z,2.40
2022-10-16T20:04:39.955Z,2.67
2022-10-16T20:07:28.082Z,2.55
2022-10-16T20:10:15.839Z,2.30
2022-10-16T20:13:01.388Z,1.70
2022-10-16T20:15:47.853Z,2.13
2022-10-16T20:18:33.637Z,2.70
2022-10-16T20:21:25.226Z,2.45
2022-10-16T20:24:10.827Z,2.42
2022-10-16T20:26:56.075Z,2.67
2022-10-16T20:29:41.736Z,2.50
2022-10-16T20:32:27.191Z,2.38
2022-10-16T20:35:12.914Z,2.20
2022-10-16T20:37:58.738Z,2.10
2022-10-16T20:40:48.171Z,2.17
2022-10-16T20:43:33.935Z,1.98
2022-10-16T20:46:25.326Z,2.20
2022-10-16T20:49:11.049Z,2.10
2022-10-16T20:51:56.780Z,2.00
2022-10-16T20:54:45.065Z,2.30
2022-10-16T20:57:30.561Z,2.33
2022-10-16T21:00:16.476Z,2.60
2022-10-16T21:03:01.978Z,3.08
2022-10-16T21:05:47.793Z,2.47
2022-10-16T21:08:41.219Z,2.80
2022-10-16T21:11:28.132Z,2.50
2022-10-16T21:14:13.337Z,2.72
2022-10-16T21:16:59.008Z,2.80
2022-10-16T21:19:44.571Z,3.17
2022-10-16T21:22:30.799Z,2.78
2022-10-16T21:25:16.258Z,3.00
2022-10-16T21:28:01.840Z,3.20
2022-10-16T21:30:47.444Z,3.17
2022-10-16T21:33:32.963Z,3.15
2022-10-16T21:36:24.144Z,3.40
2022-10-16T21:39:15.200Z,3.20
2022-10-16T21:42:00.702Z,3.53
2022-10-16T21:44:46.286Z,3.55
2022-10-16T21:47:33.955Z,2.72
2022-10-16T21:50:19.448Z,3.17
2022-10-16T21:53:06.067Z,3.30
2022-10-16T21:55:51.590Z,2.97
2022-10-16T21:58:37.139Z,3.30
2022-10-16T22:01:25.913Z,3.22
2022-10-16T22:04:12.789Z,3.15
2022-10-16T22:06:58.438Z,3.50
2022-10-16T22:09:44.327Z,2.97
2022-10-16T22:12:30.251Z,3.42
2022-10-16T22:15:15.822Z,3.15
2022-10-16T22:18:01.510Z,3.05
2022-10-16T22:20:47.232Z,2.80
2022-10-16T22:23:32.778Z,2.85
2022-10-16T22:26:18.579Z,3.10
2022-10-16T22:29:04.792Z,2.80
2022-10-16T22:31:54.154Z,3.40
2022-10-16T22:34:39.727Z,3.08
2022-10-16T22:37:25.730Z,3.00
2022-10-16T22:40:11.988Z,3.00
2022-10-16T22:42:57.884Z,2.92
2022-10-16T22:45:43.408Z,2.97
2022-10-16T22:48:29.059Z,3.15
2022-10-16T22:51:16.985Z,3.40
2022-10-16T22:54:02.955Z,3.88
2022-10-16T22:56:49.126Z,3.67
2022-10-16T22:59:34.580Z,3.50
2022-10-16T23:02:19.982Z,3.40
2022-10-16T23:05:09.752Z,3.58
2022-10-16T23:07:55.033Z,3.05
2022-10-16T23:10:46.507Z,3.35
2022-10-16T23:13:32.056Z,3.65
2022-10-16T23:16:19.553Z,2.83
2022-10-16T23:19:05.185Z,3.60
2022-10-16T23:21:50.741Z,2.85
2022-10-16T23:24:36.071Z,3.03
2022-10-16T23:27:21.694Z,3.30
2022-10-16T23:30:07.979Z,3.28
2022-10-16T23:32:53.488Z,3.30
2022-10-16T23:35:42.139Z,3.55
2022-10-16T23:38:27.476Z,3.92
2022-10-16T23:41:13.886Z,3.50
2022-10-16T23:43:59.490Z,3.45
2022-10-16T23:46:45.002Z,4.25
2022-10-16T23:49:30.774Z,3.95
2022-10-16T23:52:16.130Z,3.70
2022-10-16T23:55:01.961Z,3.92
2022-10-16T23:57:47.352Z,4.18
